Time;durP1;ratioP1;P1;durP2;ratioP2;P2;SDS_P1;SDS_P2;PMS_P1;PMS_P2;Temp;Humidity;BMP_temperature;BMP_pressure;BME280_temperature;BME280_humidity;BME280_pressure;Samples;Min_cycle;Max_cycle;Signal;HPM_P1;HPM_P2
2023/07/07 00:02:09;;;;;;;6.67;4.67;;;14.50;97.30;;;;;;5032666;28;21264;-71
2023/07/07 00:04:37;;;;;;;5.33;4.63;;;14.30;97.90;;;;;;5031856;28;20456;-72
2023/07/07 00:07:06;;;;;;;7.50;4.87;;;14.30;97.00;;;;;;5032187;28;20488;-71
2023/07/07 00:09:34;;;;;;;6.03;5.40;;;14.40;96.30;;;;;;5032014;28;20574;-72
2023/07/07 00:12:02;;;;;;;6.00;4.33;;;14.30;98.60;;;;;;5032160;28;20445;-70
2023/07/07 00:14:30;;;;;;;7.37;5.03;;;14.20;98.50;;;;;;5031565;28;20534;-70
2023/07/07 00:17:01;;;;;;;7.50;5.17;;;14.30;98.80;;;;;;5032075;28;20451;-70
2023/07/07 00:19:32;;;;;;;5.57;5.00;;;14.30;99.10;;;;;;5032055;28;20472;-70
2023/07/07 00:22:01;;;;;;;7.33;5.60;;;14.20;99.00;;;;;;5031996;28;20460;-71
2023/07/07 00:24:29;;;;;;;6.07;5.23;;;14.10;98.90;;;;;;5031820;28;20478;-70
2023/07/07 00:26:57;;;;;;;6.37;4.63;;;14.00;98.80;;;;;;5032223;28;21004;-70
2023/07/07 00:29:25;;;;;;;7.23;5.43;;;14.00;99.90;;;;;;5031538;28;20477;-70
2023/07/07 00:31:53;;;;;;;6.73;5.20;;;14.00;99.90;;;;;;5029641;28;20448;-71
2023/07/07 00:34:21;;;;;;;5.60;5.07;;;13.90;99.90;;;;;;5028709;28;20499;-71
2023/07/07 00:36:50;;;;;;;12.10;5.57;;;13.90;99.90;;;;;;5031364;28;20447;-71
2023/07/07 00:39:18;;;;;;;7.30;6.07;;;13.90;99.90;;;;;;5031446;28;20445;-71
2023/07/07 00:41:46;;;;;;;6.50;5.90;;;13.80;99.90;;;;;;5031524;28;20448;-70
2023/07/07 00:44:14;;;;;;;6.37;5.70;;;13.70;99.90;;;;;;5030677;28;20461;-70
2023/07/07 00:46:42;;;;;;;5.97;5.37;;;13.80;99.90;;;;;;5031370;28;20959;-70
2023/07/07 00:49:13;;;;;;;12.23;5.63;;;13.80;99.90;;;;;;5031319;28;20487;-70
2023/07/07 00:51:45;;;;;;;6.50;5.40;;;13.80;99.90;;;;;;5031449;28;20447;-70
2023/07/07 00:54:18;;;;;;;6.23;5.30;;;13.80;99.90;;;;;;5030770;28;20469;-70
2023/07/07 00:56:49;;;;;;;6.40;5.67;;;13.70;99.90;;;;;;5030778;28;20483;-71
2023/07/07 00:59:20;;;;;;;6.80;5.77;;;13.70;99.90;;;;;;5031216;28;20440;-71
2023/07/07 01:01:53;;;;;;;6.17;5.57;;;13.60;99.90;;;;;;5031318;28;21009;-71
2023/07/07 01:04:22;;;;;;;6.87;4.80;;;13.50;99.90;;;;;;5030576;28;21210;-71
2023/07/07 01:06:57;;;;;;;7.83;6.10;;;13.60;99.90;;;;;;5031060;28;20444;-70
2023/07/07 01:09:26;;;;;;;7.53;5.20;;;13.60;99.90;;;;;;5031055;28;20476;-70
2023/07/07 01:11:54;;;;;;;5.70;5.07;;;13.60;99.90;;;;;;5031076;28;20551;-71
2023/07/07 01:14:26;;;;;;;6.33;5.70;;;13.60;99.90;;;;;;5030834;28;20469;-71
2023/07/07 01:17:13;;;;;;;7.20;6.07;;;13.50;99.90;;;;;;5030942;28;20498;-71
2023/07/07 01:20:00;;;;;;;5.60;5.07;;;13.40;99.90;;;;;;5030883;28;20433;-71
2023/07/07 01:22:56;;;;;;;5.60;4.97;;;13.40;99.90;;;;;;5030287;28;20468;-71
2023/07/07 01:25:36;;;;;;;6.37;5.27;;;13.40;99.90;;;;;;5030807;28;20453;-71
2023/07/07 01:28:21;;;;;;;7.17;5.17;;;13.30;99.90;;;;;;5030460;28;20441;-71
2023/07/07 01:30:53;;;;;;;7.87;5.60;;;13.30;99.90;;;;;;5030946;28;20872;-71
2023/07/07 01:33:26;;;;;;;7.80;5.10;;;13.30;99.90;;;;;;5030411;28;20447;-71
2023/07/07 01:35:55;;;;;;;7.03;6.33;;;13.20;99.90;;;;;;5030668;28;20487;-72
2023/07/07 01:38:33;;;;;;;7.43;6.17;;;13.10;99.90;;;;;;5030456;28;20474;-71
2023/07/07 01:41:09;;;;;;;6.63;5.93;;;13.00;99.90;;;;;;5031191;28;20448;-71
2023/07/07 01:43:44;;;;;;;7.53;6.40;;;13.00;99.90;;;;;;5030511;28;20453;-71
2023/07/07 01:46:19;;;;;;;8.50;6.20;;;13.10;99.90;;;;;;5030694;28;20436;-71
2023/07/07 01:48:53;;;;;;;7.80;5.40;;;13.00;99.90;;;;;;5029808;28;20533;-71
2023/07/07 01:51:23;;;;;;;10.97;6.40;;;13.00;99.90;;;;;;5030689;28;20444;-71
2023/07/07 01:53:52;;;;;;;5.87;5.27;;;13.00;99.90;;;;;;5029563;28;20450;-71
2023/07/07 01:56:23;;;;;;;7.90;5.53;;;12.90;99.90;;;;;;5030318;28;20444;-71
2023/07/07 01:58:52;;;;;;;9.40;6.30;;;12.90;99.90;;;;;;5030273;28;20459;-71
2023/07/07 02:01:21;;;;;;;7.30;6.70;;;12.80;99.90;;;;;;5029645;28;20447;-71
2023/07/07 02:03:49;;;;;;;7.10;6.10;;;12.70;99.90;;;;;;5029379;28;20486;-69
2023/07/07 02:06:17;;;;;;;6.80;5.77;;;12.90;99.90;;;;;;5029919;28;20474;-70
2023/07/07 02:08:46;;;;;;;7.13;6.03;;;12.80;99.90;;;;;;5030030;28;20479;-71
2023/07/07 02:11:14;;;;;;;8.40;6.20;;;12.80;99.90;;;;;;5029888;28;20534;-71
2023/07/07 02:13:43;;;;;;;8.07;7.07;;;12.70;99.90;;;;;;5029869;28;20491;-70
2023/07/07 02:16:11;;;;;;;7.63;6.03;;;12.70;99.90;;;;;;5029643;28;20449;-71
2023/07/07 02:18:41;;;;;;;8.73;6.10;;;12.60;99.90;;;;;;5029792;28;20449;-70
2023/07/07 02:21:09;;;;;;;7.60;5.73;;;12.60;99.90;;;;;;5029774;28;20443;-71
2023/07/07 02:23:37;;;;;;;7.63;6.10;;;12.70;99.90;;;;;;5029613;28;20441;-71
2023/07/07 02:26:05;;;;;;;8.33;6.73;;;12.60;99.90;;;;;;5029643;28;20982;-71
2023/07/07 02:28:33;;;;;;;6.20;5.57;;;12.60;99.90;;;;;;5029304;28;20444;-71
2023/07/07 02:31:01;;;;;;;10.43;6.43;;;12.50;99.90;;;;;;5029948;28;20525;-71
2023/07/07 02:33:31;;;;;;;8.53;5.90;;;12.40;99.90;;;;;;5029325;28;20514;-71
2023/07/07 02:36:03;;;;;;;8.73;6.13;;;12.30;99.90;;;;;;5029656;28;20511;-71
2023/07/07 02:38:31;;;;;;;6.90;6.20;;;12.30;99.90;;;;;;5029159;28;20467;-71
2023/07/07 02:41:00;;;;;;;8.97;6.47;;;12.20;99.90;;;;;;5029800;28;20444;-71
2023/07/07 02:43:30;;;;;;;7.00;5.80;;;12.20;99.90;;;;;;5028889;28;20537;-70
2023/07/07 02:45:58;;;;;;;8.10;6.30;;;12.20;99.90;;;;;;5029714;28;20466;-70
2023/07/07 02:48:26;;;;;;;8.53;6.83;;;12.30;99.90;;;;;;5029502;28;20452;-70
2023/07/07 02:50:56;;;;;;;7.40;5.93;;;12.30;99.90;;;;;;5029345;28;20480;-70
2023/07/07 02:53:28;;;;;;;8.40;6.80;;;12.30;99.90;;;;;;5029025;28;20451;-70
2023/07/07 02:55:57;;;;;;;7.90;6.00;;;12.20;99.90;;;;;;5029380;28;20558;-70
2023/07/07 02:58:26;;;;;;;6.50;5.90;;;12.20;99.90;;;;;;5029520;28;20842;-71
2023/07/07 03:00:54;;;;;;;7.37;6.60;;;12.10;99.90;;;;;;5029356;28;20470;-70
2023/07/07 03:03:26;;;;;;;6.77;6.17;;;12.10;99.90;;;;;;5029114;28;20442;-71
2023/07/07 03:06:03;;;;;;;6.93;6.33;;;12.10;99.90;;;;;;5029019;28;21017;-71
2023/07/07 03:08:32;;;;;;;9.20;6.77;;;12.00;99.90;;;;;;5029593;28;21071;-71
2023/07/07 03:11:08;;;;;;;6.60;5.87;;;12.00;99.90;;;;;;5029203;28;20476;-71
2023/07/07 03:13:37;;;;;;;7.00;6.30;;;11.90;99.90;;;;;;5029127;28;20464;-72
2023/07/07 03:16:09;;;;;;;5.80;5.20;;;12.00;99.90;;;;;;5029158;28;20457;-71
2023/07/07 03:18:37;;;;;;;8.53;6.67;;;12.00;99.90;;;;;;5029446;28;20477;-71
2023/07/07 03:21:08;;;;;;;7.73;6.90;;;12.00;99.90;;;;;;5032424;28;20438;-71
2023/07/07 03:23:38;;;;;;;10.00;6.20;;;12.00;99.90;;;;;;5032581;28;20972;-71
2023/07/07 03:26:07;;;;;;;15.47;7.00;;;11.90;99.90;;;;;;5033055;28;20477;-71
2023/07/07 03:28:35;;;;;;;19.17;7.53;;;11.90;99.90;;;;;;5032834;28;20531;-71
2023/07/07 03:31:11;;;;;;;14.13;6.90;;;11.90;99.90;;;;;;5033005;28;20524;-71
2023/07/07 03:33:40;;;;;;;13.37;7.70;;;11.90;99.90;;;;;;5032732;28;20446;-71
2023/07/07 03:36:10;;;;;;;15.20;6.97;;;11.90;99.90;;;;;;5033369;28;20463;-71
2023/07/07 03:38:39;;;;;;;12.20;7.10;;;11.90;99.90;;;;;;5032914;28;20458;-70
2023/07/07 03:41:11;;;;;;;9.13;7.10;;;11.90;99.90;;;;;;5033092;28;21069;-71
2023/07/07 03:43:39;;;;;;;7.30;6.60;;;11.90;99.90;;;;;;5032449;28;20447;-70
2023/07/07 03:46:07;;;;;;;7.23;6.53;;;12.10;99.90;;;;;;5032794;28;20470;-71
2023/07/07 03:48:35;;;;;;;9.00;6.80;;;12.20;99.90;;;;;;5032576;28;20489;-70
2023/07/07 03:51:07;;;;;;;10.33;6.60;;;12.10;99.90;;;;;;5032378;28;20551;-71
2023/07/07 03:53:35;;;;;;;13.37;7.37;;;12.10;99.90;;;;;;5032262;28;20431;-71
2023/07/07 03:56:06;;;;;;;15.57;7.20;;;12.00;99.90;;;;;;5032557;28;20544;-71
2023/07/07 03:58:34;;;;;;;16.67;6.87;;;12.00;99.90;;;;;;5032836;28;21003;-72
2023/07/07 04:01:03;;;;;;;15.87;6.40;;;12.00;99.90;;;;;;5032292;28;20447;-71
2023/07/07 04:03:31;;;;;;;18.13;7.40;;;12.00;99.90;;;;;;5032255;28;20953;-71
2023/07/07 04:06:00;;;;;;;19.30;6.83;;;12.10;99.90;;;;;;5032118;28;20548;-71
2023/07/07 04:08:28;;;;;;;15.60;6.90;;;12.10;99.90;;;;;;5032244;28;20450;-72
2023/07/07 04:11:00;;;;;;;16.60;7.03;;;12.10;99.90;;;;;;5032590;28;20484;-72
2023/07/07 04:13:32;;;;;;;11.40;6.60;;;12.20;99.90;;;;;;5031738;28;20550;-71
2023/07/07 04:16:01;;;;;;;12.10;6.97;;;12.20;99.90;;;;;;5032389;28;20463;-71
2023/07/07 04:18:32;;;;;;;17.77;7.50;;;12.30;99.90;;;;;;5032120;28;20488;-72
2023/07/07 04:21:01;;;;;;;17.47;7.50;;;12.30;99.90;;;;;;5032271;28;20443;-72
2023/07/07 04:23:29;;;;;;;12.90;7.03;;;12.40;99.90;;;;;;5031505;28;21004;-70
2023/07/07 04:25:57;;;;;;;12.57;7.20;;;12.50;99.90;;;;;;5032030;28;20511;-70
2023/07/07 04:28:25;;;;;;;9.83;7.10;;;12.60;99.90;;;;;;5031895;28;20475;-70
2023/07/07 04:30:56;;;;;;;11.27;7.80;;;12.70;99.90;;;;;;5031352;28;20844;-71
2023/07/07 04:33:27;;;;;;;7.43;5.60;;;12.70;99.90;;;;;;5030844;28;20492;-70
2023/07/07 04:35:57;;;;;;;6.73;6.03;;;12.60;99.90;;;;;;5031971;28;20464;-69
2023/07/07 04:38:30;;;;;;;8.13;5.90;;;12.70;99.90;;;;;;5028775;28;21061;-69
2023/07/07 04:41:07;;;;;;;8.97;6.33;;;12.80;99.90;;;;;;5031463;28;20442;-69
2023/07/07 04:43:36;;;;;;;7.70;6.40;;;13.00;99.90;;;;;;5031524;28;20446;-68
2023/07/07 04:46:07;;;;;;;10.30;7.00;;;13.00;99.90;;;;;;5031678;28;20544;-68
2023/07/07 04:48:35;;;;;;;8.40;5.60;;;13.10;99.90;;;;;;5026657;28;20456;-68
2023/07/07 04:51:08;;;;;;;7.33;6.60;;;13.20;99.90;;;;;;5027761;28;20470;-68
2023/07/07 04:53:38;;;;;;;7.63;6.97;;;13.30;99.90;;;;;;5027717;28;20476;-68
2023/07/07 04:56:09;;;;;;;6.70;6.00;;;13.30;99.90;;;;;;5030611;28;20464;-67
2023/07/07 04:58:39;;;;;;;8.33;6.43;;;13.30;99.90;;;;;;5031598;28;20506;-66
2023/07/07 05:01:09;;;;;;;6.40;5.80;;;13.40;99.90;;;;;;5030706;28;20481;-69
2023/07/07 05:03:39;;;;;;;7.33;6.37;;;13.50;99.90;;;;;;5031087;28;20436;-69
2023/07/07 05:06:07;;;;;;;9.03;6.90;;;13.50;99.90;;;;;;5030793;28;20472;-67
2023/07/07 05:08:38;;;;;;;7.33;6.63;;;13.60;99.90;;;;;;5030883;28;20810;-69
2023/07/07 05:11:07;;;;;;;10.80;5.83;;;13.80;99.90;;;;;;5031043;28;20728;-69
2023/07/07 05:13:35;;;;;;;7.43;6.40;;;14.00;99.90;;;;;;5030147;28;20486;-70
2023/07/07 05:16:05;;;;;;;7.10;6.07;;;14.10;99.90;;;;;;5030100;28;20473;-70
2023/07/07 05:18:35;;;;;;;7.03;5.80;;;14.20;99.90;;;;;;5030769;28;20437;-67
2023/07/07 05:21:04;;;;;;;8.13;6.27;;;14.30;99.90;;;;;;5030629;28;20440;-67
2023/07/07 05:23:34;;;;;;;10.60;6.30;;;14.30;99.90;;;;;;5030800;28;20517;-67
2023/07/07 05:26:02;;;;;;;8.77;6.77;;;14.50;99.90;;;;;;5030647;28;20473;-68
2023/07/07 05:28:30;;;;;;;12.53;7.00;;;14.60;99.90;;;;;;5030779;28;20539;-68
2023/07/07 05:30:58;;;;;;;6.80;6.10;;;14.70;99.90;;;;;;5030943;28;20545;-68
2023/07/07 05:33:28;;;;;;;6.80;5.77;;;14.80;99.90;;;;;;5030495;28;20556;-68
2023/07/07 05:36:01;;;;;;;9.10;5.80;;;15.00;99.90;;;;;;5030516;28;20531;-68
2023/07/07 05:38:30;;;;;;;6.57;5.97;;;15.10;99.90;;;;;;5030380;28;20487;-70
2023/07/07 05:40:58;;;;;;;6.77;6.03;;;15.30;99.90;;;;;;5030428;28;20446;-70
2023/07/07 05:43:27;;;;;;;6.70;5.50;;;15.40;99.90;;;;;;5029755;28;20533;-70
2023/07/07 05:45:56;;;;;;;5.83;5.30;;;15.50;99.90;;;;;;5030259;28;20576;-69
2023/07/07 05:48:25;;;;;;;6.43;5.67;;;15.60;99.90;;;;;;5028023;28;20841;-70
2023/07/07 05:50:58;;;;;;;7.67;5.77;;;15.70;99.90;;;;;;5029873;28;20511;-69
2023/07/07 05:53:28;;;;;;;7.40;5.83;;;15.80;99.90;;;;;;5024496;28;20433;-70
2023/07/07 05:56:03;;;;;;;8.70;5.40;;;15.80;99.90;;;;;;5030039;28;20913;-69
2023/07/07 05:58:31;;;;;;;8.00;5.40;;;16.00;99.90;;;;;;5030077;28;20439;-69
2023/07/07 06:00:59;;;;;;;6.57;5.17;;;16.10;99.90;;;;;;5029826;28;20439;-69
2023/07/07 06:03:28;;;;;;;5.87;5.27;;;16.30;99.40;;;;;;5029902;28;20474;-69
2023/07/07 06:05:58;;;;;;;9.00;5.10;;;16.40;98.80;;;;;;5029939;28;20476;-69
2023/07/07 06:08:26;;;;;;;7.00;5.07;;;16.50;97.30;;;;;;5029903;28;20473;-69
2023/07/07 06:10:54;;;;;;;7.67;5.03;;;16.70;96.70;;;;;;5029743;28;20472;-69
2023/07/07 06:13:23;;;;;;;5.83;5.00;;;16.70;96.70;;;;;;5029530;28;20445;-69
2023/07/07 06:15:52;;;;;;;6.47;4.93;;;16.80;95.30;;;;;;5030081;28;20466;-69
2023/07/07 06:18:22;;;;;;;5.63;5.07;;;16.90;96.30;;;;;;5030002;28;20587;-70
2023/07/07 06:20:50;;;;;;;9.30;5.00;;;17.00;96.00;;;;;;5029700;28;20499;-70
2023/07/07 06:23:20;;;;;;;5.80;4.90;;;17.10;95.40;;;;;;5029617;28;20833;-70
2023/07/07 06:25:48;;;;;;;6.37;4.80;;;17.20;94.10;;;;;;5029489;28;20529;-70
2023/07/07 06:28:16;;;;;;;8.00;4.67;;;17.40;93.60;;;;;;5030182;28;20445;-70
2023/07/07 06:30:44;;;;;;;5.17;4.37;;;17.60;92.90;;;;;;5029832;28;20499;-69
2023/07/07 06:33:12;;;;;;;6.10;4.40;;;17.60;93.10;;;;;;5029683;28;20445;-70
2023/07/07 06:35:40;;;;;;;5.87;4.53;;;17.80;92.90;;;;;;5029887;28;20461;-70
2023/07/07 06:38:08;;;;;;;7.80;4.80;;;17.90;93.00;;;;;;5029816;28;20488;-69
2023/07/07 06:40:37;;;;;;;7.87;4.80;;;18.00;92.20;;;;;;5029919;28;21003;-70
2023/07/07 06:43:05;;;;;;;5.57;4.93;;;18.20;91.90;;;;;;5029763;28;20449;-69
2023/07/07 06:45:36;;;;;;;8.00;4.33;;;18.30;91.40;;;;;;5029936;28;20465;-70
2023/07/07 06:48:05;;;;;;;6.17;4.60;;;18.50;90.40;;;;;;5030090;28;20871;-70
2023/07/07 06:50:36;;;;;;;5.00;4.50;;;18.60;90.50;;;;;;5029735;28;20519;-69
2023/07/07 06:53:05;;;;;;;6.60;4.60;;;18.70;90.50;;;;;;5029902;28;21026;-69
2023/07/07 06:55:33;;;;;;;6.87;4.80;;;18.80;86.80;;;;;;5032860;28;20461;-69
2023/07/07 06:58:02;;;;;;;6.00;4.80;;;18.90;88.00;;;;;;5035022;28;20518;-69
2023/07/07 07:00:32;;;;;;;5.83;5.10;;;19.10;84.70;;;;;;5033687;28;20455;-68
2023/07/07 07:03:00;;;;;;;4.70;4.20;;;19.30;81.70;;;;;;5033145;28;20449;-69
2023/07/07 07:05:28;;;;;;;6.50;4.40;;;19.40;80.90;;;;;;5033135;28;20528;-69
2023/07/07 07:07:56;;;;;;;5.70;4.47;;;19.50;83.20;;;;;;5033454;28;20521;-69
2023/07/07 07:10:24;;;;;;;5.93;4.23;;;19.60;81.60;;;;;;5033405;28;20452;-70
2023/07/07 07:12:52;;;;;;;5.37;4.50;;;19.70;80.00;;;;;;5032914;28;20477;-69
2023/07/07 07:15:21;;;;;;;5.90;4.83;;;19.90;78.80;;;;;;5033036;28;20820;-69
2023/07/07 07:17:49;;;;;;;6.63;5.07;;;20.10;78.50;;;;;;5032951;28;20441;-69
2023/07/07 07:20:18;;;;;;;7.63;4.17;;;20.30;78.20;;;;;;5033007;28;20476;-69
2023/07/07 07:22:46;;;;;;;9.57;5.30;;;20.30;78.70;;;;;;5033011;28;20433;-69
2023/07/07 07:25:15;;;;;;;4.70;4.30;;;20.30;78.70;;;;;;5033094;28;20464;-69
2023/07/07 07:27:43;;;;;;;5.77;5.27;;;20.50;76.70;;;;;;5032977;28;20441;-70
2023/07/07 07:30:14;;;;;;;6.27;5.07;;;20.70;76.00;;;;;;5032695;28;20480;-69
2023/07/07 07:32:43;;;;;;;6.40;4.27;;;20.80;76.00;;;;;;5032438;28;20473;-70
2023/07/07 07:35:12;;;;;;;5.50;4.70;;;20.90;75.60;;;;;;5032771;28;20465;-70
2023/07/07 07:37:41;;;;;;;6.23;4.83;;;21.00;77.90;;;;;;5032753;28;20436;-70
2023/07/07 07:40:09;;;;;;;5.87;5.23;;;21.20;75.90;;;;;;5032552;28;21102;-70
2023/07/07 07:42:37;;;;;;;5.27;4.37;;;21.40;72.80;;;;;;5032491;28;20441;-70
2023/07/07 07:45:07;;;;;;;6.90;5.40;;;21.50;71.70;;;;;;5032657;28;20515;-70
2023/07/07 07:47:35;;;;;;;4.73;4.23;;;21.70;69.40;;;;;;5032886;28;20903;-69
2023/07/07 07:50:05;;;;;;;6.33;4.90;;;21.90;69.60;;;;;;5032759;28;20542;-69
2023/07/07 07:52:33;;;;;;;6.90;5.20;;;22.20;67.50;;;;;;5032465;28;20995;-70
2023/07/07 07:55:01;;;;;;;5.60;4.80;;;22.30;66.50;;;;;;5032927;28;20460;-69
2023/07/07 07:57:29;;;;;;;6.00;5.40;;;22.40;66.60;;;;;;5032774;28;20535;-69
2023/07/07 07:59:57;;;;;;;6.03;5.40;;;22.50;65.80;;;;;;5032878;28;21030;-70
2023/07/07 08:02:25;;;;;;;5.53;4.93;;;22.60;66.60;;;;;;5031545;28;20483;-69
2023/07/07 08:04:53;;;;;;;6.23;5.00;;;22.70;67.30;;;;;;5028445;28;20479;-70
2023/07/07 08:07:25;;;;;;;5.60;5.00;;;22.80;67.10;;;;;;5022457;28;20507;-70
2023/07/07 08:09:53;;;;;;;6.60;4.80;;;22.90;67.50;;;;;;5028742;28;20473;-69
2023/07/07 08:12:21;;;;;;;7.20;5.37;;;23.00;65.80;;;;;;5027087;28;20502;-71
2023/07/07 08:14:49;;;;;;;5.80;4.83;;;23.20;64.70;;;;;;5029948;28;20523;-70
2023/07/07 08:17:18;;;;;;;5.70;5.20;;;23.40;62.90;;;;;;5032373;28;20429;-70
2023/07/07 08:19:47;;;;;;;5.17;4.33;;;23.60;63.80;;;;;;5032637;28;20491;-69
2023/07/07 08:22:17;;;;;;;7.40;5.20;;;23.80;63.70;;;;;;5032153;28;20441;-70
2023/07/07 08:24:50;;;;;;;6.00;4.90;;;23.90;62.10;;;;;;5032231;28;20467;-69
2023/07/07 08:27:20;;;;;;;5.87;5.20;;;24.10;63.00;;;;;;5032391;28;20441;-70
2023/07/07 08:29:51;;;;;;;5.33;4.83;;;24.30;61.60;;;;;;4990215;28;20817;-70
2023/07/07 08:32:21;;;;;;;8.40;5.90;;;24.50;62.20;;;;;;4989674;28;20696;-69
2023/07/07 08:34:49;;;;;;;6.77;6.03;;;24.80;59.80;;;;;;4994806;28;20529;-68
2023/07/07 08:37:22;;;;;;;5.57;5.07;;;24.80;58.50;;;;;;4999956;28;20434;-69
2023/07/07 08:39:52;;;;;;;7.00;5.50;;;24.90;59.20;;;;;;4989298;28;20471;-69
2023/07/07 08:42:25;;;;;;;6.20;5.33;;;25.00;60.00;;;;;;4989509;28;20435;-69
2023/07/07 08:44:54;;;;;;;6.57;5.77;;;25.10;57.80;;;;;;4989272;28;20463;-69
2023/07/07 08:47:57;;;;;;;8.67;5.50;;;25.20;58.50;;;;;;4998185;28;20441;-69
2023/07/07 08:50:33;;;;;;;6.27;5.67;;;25.50;58.20;;;;;;5031261;28;20524;-70
2023/07/07 08:53:23;;;;;;;6.10;5.60;;;25.70;57.90;;;;;;5030907;28;20982;-69
2023/07/07 08:55:57;;;;;;;7.27;5.57;;;25.80;56.70;;;;;;5031190;28;21022;-70
2023/07/07 08:58:31;;;;;;;6.10;5.53;;;25.90;57.90;;;;;;5031516;28;20425;-70
2023/07/07 09:01:20;;;;;;;6.23;5.63;;;26.00;57.20;;;;;;5031019;28;20480;-70
2023/07/07 09:04:02;;;;;;;5.50;5.00;;;26.30;56.70;;;;;;5031138;28;20444;-69
2023/07/07 09:06:44;;;;;;;6.50;5.07;;;26.50;55.50;;;;;;5030982;28;20467;-69
2023/07/07 09:09:21;;;;;;;6.93;5.90;;;26.70;54.00;;;;;;5031359;28;20439;-69
2023/07/07 09:12:03;;;;;;;5.87;5.13;;;26.70;53.90;;;;;;5031123;28;20449;-69
2023/07/07 09:14:32;;;;;;;6.63;5.93;;;26.70;54.20;;;;;;5010954;28;20569;-70
2023/07/07 09:17:04;;;;;;;7.23;6.03;;;26.90;54.80;;;;;;5011089;28;20496;-70
2023/07/07 09:19:36;;;;;;;7.63;6.83;;;27.10;54.30;;;;;;5011077;28;20491;-69
2023/07/07 09:22:10;;;;;;;8.03;7.23;;;27.30;51.10;;;;;;5011012;28;20445;-70
2023/07/07 09:24:44;;;;;;;10.37;6.10;;;27.50;49.90;;;;;;5010971;28;21022;-70
2023/07/07 09:27:20;;;;;;;8.10;5.97;;;27.80;50.50;;;;;;5010909;28;20449;-70
2023/07/07 09:29:54;;;;;;;7.73;6.60;;;28.10;48.70;;;;;;5011206;28;20449;-71
2023/07/07 09:32:23;;;;;;;6.20;5.50;;;28.30;49.70;;;;;;5015363;28;20468;-71
2023/07/07 09:34:51;;;;;;;6.73;6.00;;;28.50;49.30;;;;;;5030385;28;20485;-71
2023/07/07 09:37:31;;;;;;;7.23;5.87;;;28.60;47.10;;;;;;5030659;28;20449;-70
2023/07/07 09:40:15;;;;;;;7.40;6.77;;;28.80;47.50;;;;;;5027359;28;20468;-71
2023/07/07 09:42:55;;;;;;;6.40;5.80;;;28.90;44.30;;;;;;5020969;28;20433;-70
2023/07/07 09:45:34;;;;;;;8.07;6.10;;;29.00;44.10;;;;;;5022400;28;20463;-70
2023/07/07 09:48:13;;;;;;;7.03;6.40;;;29.20;40.30;;;;;;5024326;28;20447;-70
2023/07/07 09:50:48;;;;;;;7.53;6.80;;;29.30;42.40;;;;;;5029890;28;20424;-71
2023/07/07 09:53:22;;;;;;;7.27;6.50;;;29.50;42.70;;;;;;5029467;28;20500;-70
2023/07/07 09:55:55;;;;;;;8.60;6.67;;;29.40;39.10;;;;;;5029221;28;20829;-71
2023/07/07 09:58:29;;;;;;;7.53;6.83;;;29.70;40.50;;;;;;5030495;28;20519;-70
2023/07/07 10:01:01;;;;;;;8.03;7.30;;;29.80;38.90;;;;;;5030479;28;20445;-70
2023/07/07 10:03:34;;;;;;;8.93;8.10;;;30.20;39.90;;;;;;5029928;28;20465;-71
2023/07/07 10:06:06;;;;;;;7.73;7.03;;;30.70;37.10;;;;;;5028404;28;20455;-70
2023/07/07 10:08:36;;;;;;;7.20;6.60;;;31.40;37.00;;;;;;5027226;28;20441;-70
2023/07/07 10:11:17;;;;;;;7.40;6.70;;;32.00;35.80;;;;;;5029540;28;20934;-71
2023/07/07 10:13:51;;;;;;;7.20;6.60;;;32.50;35.50;;;;;;4948880;29;20523;-70
2023/07/07 10:16:29;;;;;;;7.73;7.00;;;33.10;34.30;;;;;;4947734;28;20492;-71
2023/07/07 10:18:58;;;;;;;8.57;7.77;;;33.40;32.80;;;;;;4958169;28;20440;-71
2023/07/07 10:21:27;;;;;;;7.50;6.80;;;33.70;33.10;;;;;;4960420;28;20908;-70
2023/07/07 10:23:55;;;;;;;10.10;8.30;;;34.10;33.50;;;;;;4968325;28;20450;-70
2023/07/07 10:26:23;;;;;;;8.90;8.00;;;34.30;31.70;;;;;;4949290;28;20462;-71
2023/07/07 10:28:56;;;;;;;8.80;8.10;;;34.50;30.10;;;;;;4945021;28;20471;-71
2023/07/07 10:31:26;;;;;;;9.53;8.70;;;34.60;31.30;;;;;;4962867;28;20471;-70
2023/07/07 10:33:58;;;;;;;9.23;8.40;;;34.90;30.30;;;;;;5028674;28;20527;-70
2023/07/07 10:36:29;;;;;;;9.87;9.07;;;35.00;31.10;;;;;;5027778;28;20526;-71
2023/07/07 10:38:57;;;;;;;9.30;8.50;;;35.30;32.10;;;;;;5029380;28;20931;-70
2023/07/07 10:41:26;;;;;;;10.27;9.23;;;35.00;28.80;;;;;;5029409;28;20440;-70
2023/07/07 10:43:56;;;;;;;12.20;11.10;;;35.30;29.00;;;;;;5023656;28;20450;-70
2023/07/07 10:46:24;;;;;;;12.17;11.17;;;35.40;30.00;;;;;;5028995;28;20800;-71
2023/07/07 10:48:55;;;;;;;12.00;10.87;;;35.60;30.00;;;;;;5028815;28;20453;-70
2023/07/07 10:51:33;;;;;;;11.30;10.30;;;35.80;31.00;;;;;;5029652;28;20479;-70
2023/07/07 10:54:06;;;;;;;10.93;10.03;;;36.00;28.40;;;;;;5028505;28;21013;-72
2023/07/07 10:56:37;;;;;;;9.10;8.33;;;35.80;31.30;;;;;;5029219;28;20433;-71
2023/07/07 10:59:29;;;;;;;10.37;9.57;;;36.20;30.10;;;;;;5027534;28;20455;-71
2023/07/07 11:02:15;;;;;;;9.90;9.10;;;36.30;30.90;;;;;;5027904;28;20450;-71
2023/07/07 11:05:08;;;;;;;9.50;8.60;;;35.90;29.90;;;;;;5027841;28;20843;-71
2023/07/07 11:07:45;;;;;;;10.00;9.10;;;35.50;30.40;;;;;;5027852;28;20911;-71
2023/07/07 11:10:30;;;;;;;9.90;9.00;;;35.40;31.10;;;;;;5028063;28;20437;-70
2023/07/07 11:13:10;;;;;;;10.17;9.17;;;35.80;29.80;;;;;;5028859;28;20425;-71
2023/07/07 11:15:46;;;;;;;10.30;8.70;;;36.10;29.10;;;;;;5029253;28;20455;-73
2023/07/07 11:18:41;;;;;;;10.30;9.40;;;36.00;28.80;;;;;;5029508;28;20428;-72
2023/07/07 11:21:18;;;;;;;9.20;8.40;;;36.10;29.10;;;;;;5029514;28;20476;-70
2023/07/07 11:24:07;;;;;;;10.10;9.00;;;36.10;28.20;;;;;;5027615;28;20441;-70
2023/07/07 11:27:25;;;;;;;10.90;10.00;;;35.60;28.00;;;;;;5019596;28;20541;-70
2023/07/07 11:30:01;;;;;;;10.87;9.93;;;35.40;28.90;;;;;;5022971;28;20539;-71
2023/07/07 11:32:37;;;;;;;11.43;10.43;;;35.70;28.80;;;;;;5023961;28;20506;-71
2023/07/07 11:35:18;;;;;;;11.20;10.30;;;36.20;27.50;;;;;;5022206;28;20584;-73
2023/07/07 11:38:05;;;;;;;11.73;10.63;;;36.60;26.80;;;;;;5026749;28;20472;-72
2023/07/07 11:40:58;;;;;;;12.20;11.20;;;36.70;26.50;;;;;;5029320;28;20943;-73
2023/07/07 11:43:46;;;;;;;11.57;10.47;;;37.00;26.60;;;;;;5032519;28;20448;-72
2023/07/07 11:46:31;;;;;;;12.90;11.80;;;37.60;26.30;;;;;;5031943;28;20543;-72
2023/07/07 11:49:18;;;;;;;11.60;10.60;;;38.00;26.00;;;;;;5032649;28;20453;-72
2023/07/07 11:51:56;;;;;;;10.87;9.87;;;38.50;24.90;;;;;;5032341;28;20441;-72
2023/07/07 11:54:41;;;;;;;11.17;10.27;;;38.80;24.60;;;;;;5032394;28;20483;-73
2023/07/07 11:57:29;;;;;;;11.23;10.20;;;39.10;23.20;;;;;;5032596;28;20440;-71
2023/07/07 12:00:10;;;;;;;11.37;10.47;;;39.10;22.90;;;;;;5032734;28;20528;-72
2023/07/07 12:02:48;;;;;;;11.40;10.40;;;38.70;23.90;;;;;;5032270;28;20475;-71
2023/07/07 12:05:25;;;;;;;10.43;9.43;;;38.90;24.60;;;;;;5032431;28;20973;-72
2023/07/07 12:07:59;;;;;;;10.07;9.07;;;39.00;24.00;;;;;;5032198;28;20499;-71
2023/07/07 12:10:30;;;;;;;10.17;9.27;;;39.10;24.60;;;;;;5031746;28;20484;-72
2023/07/07 12:13:03;;;;;;;10.90;10.00;;;39.30;23.80;;;;;;5031758;28;20453;-69
2023/07/07 12:15:34;;;;;;;10.00;9.10;;;39.30;24.50;;;;;;5032238;28;20528;-69
2023/07/07 12:18:09;;;;;;;10.87;9.87;;;39.50;23.70;;;;;;5032244;28;20540;-69
2023/07/07 12:20:44;;;;;;;10.70;9.60;;;39.70;23.00;;;;;;5032205;28;20445;-69
2023/07/07 12:23:16;;;;;;;10.07;9.13;;;39.70;22.20;;;;;;5031598;28;20440;-69
2023/07/07 12:25:46;;;;;;;10.10;9.20;;;39.40;23.90;;;;;;5032075;28;20456;-69
2023/07/07 12:28:14;;;;;;;10.27;9.27;;;39.40;22.50;;;;;;5031363;28;20544;-68
2023/07/07 12:30:47;;;;;;;9.63;8.73;;;39.70;24.90;;;;;;5030987;28;20467;-67
2023/07/07 12:33:16;;;;;;;10.37;9.37;;;39.90;21.70;;;;;;5031090;28;20447;-67
2023/07/07 12:35:52;;;;;;;9.73;8.80;;;40.00;23.10;;;;;;5031407;28;20488;-68
2023/07/07 12:38:26;;;;;;;9.67;8.87;;;40.40;21.40;;;;;;5031762;28;20808;-69
2023/07/07 12:40:56;;;;;;;9.70;8.90;;;40.60;22.30;;;;;;5031485;28;20479;-68
2023/07/07 12:43:28;;;;;;;10.33;9.20;;;40.60;21.90;;;;;;5031522;28;20433;-68
2023/07/07 12:45:57;;;;;;;10.50;9.50;;;40.60;21.40;;;;;;5031303;28;20457;-69
2023/07/07 12:48:28;;;;;;;9.60;8.80;;;40.40;21.40;;;;;;5031074;28;20437;-69
2023/07/07 12:51:02;;;;;;;9.60;8.70;;;40.70;21.50;;;;;;5030722;28;20532;-70
2023/07/07 12:53:35;;;;;;;9.70;8.77;;;40.60;20.00;;;;;;5029097;28;21024;-69
2023/07/07 12:56:16;;;;;;;10.17;9.07;;;40.20;20.00;;;;;;5031085;28;20898;-69
2023/07/07 12:58:47;;;;;;;9.47;8.67;;;40.40;22.30;;;;;;5031635;28;20460;-70
2023/07/07 13:01:31;;;;;;;9.40;8.60;;;40.60;23.00;;;;;;5031339;28;20449;-70
2023/07/07 13:04:20;;;;;;;10.00;9.20;;;41.30;22.30;;;;;;5033619;28;20458;-70
2023/07/07 13:07:04;;;;;;;9.83;9.03;;;41.50;22.90;;;;;;5029053;28;21127;-69
2023/07/07 13:09:47;;;;;;;9.13;8.40;;;41.00;20.20;;;;;;5028811;28;20453;-69